Harrisonburg, Virginia
Current Conditions -  °F | °C
As of 2:55 AM on Thursday 27 Nov 2014 (Local Time) from KVBW Reporting Station
Overcast Overcast  
Wind Chill: 30°   Ceiling: 300
Heat Index: 30°   Visibility: 0.25mi
Dew Point: 30°   Wind: 0mph
Humidity: 100%   Direction: NA
Pressure: 29.99"   Gusts: NA
Location:  38.45°N, 78.87°W
Report Text: KVBW 270755Z AUTO 00000KT 1/4SM OVC003 M01/M01 A2999 RMK AO2 T10121012
Loading
Personal Weather Stations






























Interactive Weather Map New forecast layout! Learn more

10-Day Weather Forecast

Advertisements
Track Severe Weather on mobile